createdAt,value
2018-10-05T00:00:58.191Z,9.35
2018-10-05T00:01:58.063Z,9.43
2018-10-05T00:02:57.935Z,9.32
2018-10-05T00:03:57.807Z,9.32
2018-10-05T00:04:57.685Z,9.30
2018-10-05T00:05:57.557Z,9.27
2018-10-05T00:06:57.429Z,9.32
2018-10-05T00:07:57.303Z,9.28
2018-10-05T00:08:57.176Z,9.28
2018-10-05T00:09:57.050Z,9.27
2018-10-05T00:10:56.923Z,9.30
2018-10-05T00:11:56.795Z,9.38
2018-10-05T00:12:56.682Z,9.35
2018-10-05T00:13:56.543Z,9.39
2018-10-05T00:14:56.415Z,9.43
2018-10-05T00:15:56.295Z,9.52
2018-10-05T00:16:56.165Z,9.57
2018-10-05T00:17:56.045Z,9.49
2018-10-05T00:18:55.907Z,9.46
2018-10-05T00:19:55.783Z,9.32
2018-10-05T00:20:55.657Z,9.45
2018-10-05T00:21:55.529Z,9.34
2018-10-05T00:22:55.400Z,9.40
2018-10-05T00:23:55.276Z,9.42
2018-10-05T00:24:55.148Z,9.48
2018-10-05T00:25:55.023Z,9.42
2018-10-05T00:26:54.896Z,9.39
2018-10-05T00:27:54.770Z,9.35
2018-10-05T00:28:54.643Z,9.42
2018-10-05T00:29:54.516Z,9.42
2018-10-05T00:30:54.392Z,9.35
2018-10-05T00:31:54.268Z,9.39
2018-10-05T00:32:54.137Z,9.43
2018-10-05T00:33:54.007Z,9.50
2018-10-05T00:34:53.883Z,9.56
2018-10-05T00:35:53.756Z,9.49
2018-10-05T00:36:53.633Z,9.43
2018-10-05T00:37:53.504Z,9.42
2018-10-05T00:38:53.375Z,9.42
2018-10-05T00:39:53.249Z,9.46
2018-10-05T00:40:53.121Z,9.46
2018-10-05T00:41:52.994Z,9.48
2018-10-05T00:42:52.868Z,9.32
2018-10-05T00:43:52.740Z,9.38
2018-10-05T00:44:52.630Z,9.34
2018-10-05T00:45:52.486Z,9.39
2018-10-05T00:46:52.362Z,9.35
2018-10-05T00:47:52.236Z,9.30
2018-10-05T00:48:52.113Z,9.31
2018-10-05T00:49:51.984Z,9.30
2018-10-05T00:50:51.854Z,9.35
2018-10-05T00:51:51.729Z,9.30
2018-10-05T00:52:51.617Z,9.25
2018-10-05T00:53:51.474Z,9.25
2018-10-05T00:54:51.348Z,9.27
2018-10-05T00:55:51.219Z,9.20
2018-10-05T00:56:51.095Z,9.25
2018-10-05T00:57:50.967Z,9.20
2018-10-05T00:58:50.841Z,9.28
2018-10-05T00:59:50.715Z,9.23
2018-10-05T01:00:50.591Z,9.27
2018-10-05T01:01:50.523Z,9.20
2018-10-05T01:02:50.336Z,9.24
2018-10-05T01:03:50.211Z,9.18
2018-10-05T01:04:50.082Z,9.27
2018-10-05T01:05:49.956Z,9.20
2018-10-05T01:06:49.827Z,9.16
2018-10-05T01:07:49.701Z,9.25
2018-10-05T01:08:49.578Z,9.25
2018-10-05T01:09:49.448Z,9.24
2018-10-05T01:10:49.368Z,9.28
2018-10-05T01:11:49.195Z,9.27
2018-10-05T01:12:49.068Z,9.34
2018-10-05T01:13:48.942Z,9.30
2018-10-05T01:14:48.815Z,9.32
2018-10-05T01:15:48.690Z,9.35
2018-10-05T01:16:48.561Z,9.28
2018-10-05T01:17:48.432Z,9.38
2018-10-05T01:18:48.312Z,9.24
2018-10-05T01:19:48.180Z,9.31
2018-10-05T01:20:48.075Z,9.38
2018-10-05T01:21:47.925Z,9.39
2018-10-05T01:22:47.802Z,9.31
2018-10-05T01:23:47.674Z,9.18
2018-10-05T01:24:47.603Z,9.32
2018-10-05T01:25:47.418Z,9.30
2018-10-05T01:26:47.296Z,9.31
2018-10-05T01:27:47.167Z,9.31
2018-10-05T01:28:47.041Z,9.25
2018-10-05T01:29:46.914Z,9.27
2018-10-05T01:30:46.784Z,9.04
2018-10-05T01:31:46.660Z,9.02
2018-10-05T01:32:46.534Z,9.06
2018-10-05T01:33:46.406Z,9.05
2018-10-05T01:34:46.281Z,9.10
2018-10-05T01:35:46.152Z,9.09
2018-10-05T01:36:46.026Z,9.21
2018-10-05T01:37:45.898Z,9.25
2018-10-05T01:38:45.846Z,9.25
2018-10-05T01:39:45.646Z,9.20
2018-10-05T01:40:45.519Z,9.25
2018-10-05T01:41:45.399Z,9.27
2018-10-05T01:42:45.265Z,9.20
2018-10-05T01:43:45.141Z,9.18
2018-10-05T01:44:45.011Z,9.23
2018-10-05T01:45:44.890Z,9.20
2018-10-05T01:46:44.759Z,9.21
2018-10-05T01:47:44.634Z,9.25
2018-10-05T01:48:44.504Z,9.24
2018-10-05T01:49:44.378Z,9.25
2018-10-05T01:50:44.251Z,9.21
2018-10-05T01:51:44.124Z,9.25
2018-10-05T01:52:43.997Z,9.28
2018-10-05T01:53:43.869Z,9.38
2018-10-05T01:54:43.743Z,9.30
2018-10-05T01:55:43.618Z,9.34
2018-10-05T01:56:43.493Z,9.34
2018-10-05T01:57:43.364Z,9.31
2018-10-05T01:58:43.235Z,9.16
2018-10-05T01:59:43.109Z,9.24
2018-10-05T02:00:42.983Z,9.21
2018-10-05T02:01:42.878Z,9.24
2018-10-05T02:02:42.791Z,9.25
2018-10-05T02:03:42.602Z,9.24
2018-10-05T02:04:42.476Z,9.16
2018-10-05T02:05:42.353Z,9.20
2018-10-05T02:06:42.225Z,9.21
2018-10-05T02:07:42.097Z,9.18
2018-10-05T02:08:41.969Z,9.01
2018-10-05T02:09:41.844Z,9.09
2018-10-05T02:10:41.715Z,9.04
2018-10-05T02:11:41.590Z,9.02
2018-10-05T02:12:41.463Z,9.09
2018-10-05T02:13:41.333Z,9.04
2018-10-05T02:14:41.208Z,9.10
2018-10-05T02:15:41.083Z,9.06
2018-10-05T02:16:40.954Z,9.04
2018-10-05T02:17:40.827Z,9.06
2018-10-05T02:18:40.700Z,9.09
2018-10-05T02:19:40.573Z,9.12
2018-10-05T02:20:40.448Z,9.18
2018-10-05T02:21:40.320Z,9.12
2018-10-05T02:22:40.192Z,9.09
2018-10-05T02:23:40.072Z,9.15
2018-10-05T02:24:39.954Z,9.09
2018-10-05T02:25:39.813Z,9.09
2018-10-05T02:26:39.691Z,9.15
2018-10-05T02:27:39.632Z,9.30
2018-10-05T02:28:39.433Z,9.16
2018-10-05T02:29:39.307Z,9.09
2018-10-05T02:30:39.177Z,9.06
2018-10-05T02:31:39.054Z,8.99
2018-10-05T02:32:38.925Z,9.04
2018-10-05T02:33:38.802Z,9.01
2018-10-05T02:34:38.670Z,9.20
2018-10-05T02:35:38.545Z,9.04
2018-10-05T02:36:38.418Z,9.12
2018-10-05T02:37:38.292Z,9.13
2018-10-05T02:38:38.165Z,9.06
2018-10-05T02:39:38.038Z,9.02
2018-10-05T02:40:37.911Z,9.04
2018-10-05T02:41:37.839Z,9.02
2018-10-05T02:42:37.657Z,9.04
2018-10-05T02:43:37.530Z,8.94
2018-10-05T02:44:37.404Z,8.87
2018-10-05T02:45:37.276Z,8.91
2018-10-05T02:46:37.149Z,8.91
2018-10-05T02:47:37.028Z,8.96
2018-10-05T02:48:36.896Z,8.87
2018-10-05T02:49:36.770Z,8.84
2018-10-05T02:50:36.641Z,8.87
2018-10-05T02:51:36.514Z,8.90
2018-10-05T02:52:36.387Z,9.01
2018-10-05T02:53:36.260Z,9.15
2018-10-05T02:54:36.133Z,9.10
2018-10-05T02:55:36.015Z,9.20
2018-10-05T02:56:35.880Z,9.06
2018-10-05T02:57:35.754Z,9.09
2018-10-05T02:58:35.625Z,9.12
2018-10-05T02:59:35.504Z,9.05
2018-10-05T03:00:35.380Z,9.12
2018-10-05T03:01:35.245Z,9.10
2018-10-05T03:02:35.117Z,9.01
2018-10-05T03:03:34.994Z,9.06
2018-10-05T03:04:34.871Z,9.10
2018-10-05T03:05:34.743Z,9.10
2018-10-05T03:06:34.616Z,9.05
2018-10-05T03:07:34.483Z,9.04
2018-10-05T03:08:34.356Z,9.05
2018-10-05T03:09:34.230Z,9.10
2018-10-05T03:10:34.101Z,9.06
2018-10-05T03:11:33.975Z,9.06
2018-10-05T03:12:33.850Z,9.05
2018-10-05T03:13:33.720Z,9.02
2018-10-05T03:14:33.602Z,8.96
2018-10-05T03:15:33.468Z,8.97
2018-10-05T03:16:33.341Z,9.06
2018-10-05T03:17:33.215Z,9.13
2018-10-05T03:18:33.087Z,9.09
2018-10-05T03:19:32.961Z,9.09
2018-10-05T03:20:32.834Z,9.09
2018-10-05T03:21:32.707Z,9.30
2018-10-05T03:22:32.581Z,9.23
2018-10-05T03:23:32.454Z,9.12
2018-10-05T03:24:32.326Z,9.09
2018-10-05T03:25:32.199Z,9.06
2018-10-05T03:26:32.072Z,9.23
2018-10-05T03:27:31.947Z,9.16
2018-10-05T03:28:31.825Z,9.12
2018-10-05T03:29:31.691Z,9.15
2018-10-05T03:30:31.565Z,9.01
2018-10-05T03:31:31.437Z,8.87
2018-10-05T03:32:31.308Z,8.88
2018-10-05T03:33:31.181Z,8.86
2018-10-05T03:34:31.054Z,8.79
2018-10-05T03:35:30.931Z,8.81
2018-10-05T03:36:30.801Z,8.88
2018-10-05T03:37:30.673Z,8.91
2018-10-05T03:38:30.546Z,8.91
2018-10-05T03:39:30.421Z,8.94
2018-10-05T03:40:30.295Z,8.93
2018-10-05T03:41:30.167Z,8.84
2018-10-05T03:42:30.038Z,8.93
2018-10-05T03:43:29.921Z,8.96
2018-10-05T03:44:29.786Z,8.93
2018-10-05T03:45:29.664Z,8.96
2018-10-05T03:46:29.535Z,8.86
2018-10-05T03:47:29.406Z,8.81
2018-10-05T03:48:29.279Z,8.86
2018-10-05T03:49:29.151Z,8.90
2018-10-05T03:50:29.025Z,8.88
2018-10-05T03:51:28.897Z,8.91
2018-10-05T03:52:28.772Z,8.84
2018-10-05T03:53:28.644Z,8.91
2018-10-05T03:54:28.516Z,8.84
2018-10-05T03:55:28.397Z,8.88
2018-10-05T03:56:28.272Z,8.81
2018-10-05T03:57:28.135Z,8.79
2018-10-05T03:58:28.008Z,8.81
2018-10-05T03:59:27.889Z,8.73
2018-10-05T04:00:27.755Z,8.76
2018-10-05T04:01:27.628Z,8.57
2018-10-05T04:02:27.500Z,8.69
2018-10-05T04:03:27.374Z,8.71
2018-10-05T04:04:27.249Z,8.88
2018-10-05T04:05:27.119Z,8.87
2018-10-05T04:06:26.997Z,8.96
2018-10-05T04:07:26.868Z,8.90
2018-10-05T04:08:26.741Z,8.94
2018-10-05T04:09:26.612Z,8.93
2018-10-05T04:10:26.495Z,8.94
2018-10-05T04:11:26.370Z,8.88
2018-10-05T04:12:26.232Z,8.84
2018-10-05T04:13:26.103Z,8.76
2018-10-05T04:14:25.978Z,8.72
2018-10-05T04:15:25.850Z,8.76
2018-10-05T04:16:25.725Z,8.68
2018-10-05T04:17:25.597Z,8.71
2018-10-05T04:18:25.471Z,8.71
2018-10-05T04:19:25.344Z,8.69
2018-10-05T04:20:25.218Z,8.55
2018-10-05T04:21:25.090Z,8.54
2018-10-05T04:22:24.965Z,8.51
2018-10-05T04:23:24.854Z,8.45
2018-10-05T04:24:24.716Z,8.44
2018-10-05T04:25:24.588Z,8.44
2018-10-05T04:26:24.455Z,8.51
2018-10-05T04:27:24.419Z,8.54
2018-10-05T04:28:24.203Z,8.51
2018-10-05T04:29:24.075Z,8.50
2018-10-05T04:30:23.953Z,8.44
2018-10-05T04:31:23.823Z,8.40
2018-10-05T04:32:23.699Z,8.51
2018-10-05T04:33:23.589Z,8.47
2018-10-05T04:34:23.439Z,8.53
2018-10-05T04:35:23.384Z,8.54
2018-10-05T04:36:23.187Z,8.47
2018-10-05T04:37:23.056Z,8.55
2018-10-05T04:38:22.931Z,8.54
2018-10-05T04:39:22.836Z,8.53
2018-10-05T04:40:22.679Z,8.53
2018-10-05T04:41:22.634Z,8.60
2018-10-05T04:42:22.430Z,8.51
2018-10-05T04:43:22.294Z,8.62
2018-10-05T04:44:22.170Z,8.44
2018-10-05T04:45:22.040Z,8.50
2018-10-05T04:46:21.918Z,8.54
2018-10-05T04:47:21.789Z,8.48
2018-10-05T04:48:21.659Z,8.51
2018-10-05T04:49:21.575Z,8.47
2018-10-05T04:50:21.408Z,8.55
2018-10-05T04:51:21.279Z,8.51
2018-10-05T04:52:21.155Z,8.53
2018-10-05T04:53:21.024Z,8.60
2018-10-05T04:54:20.896Z,8.53
2018-10-05T04:55:20.772Z,8.51
2018-10-05T04:56:20.642Z,8.53
2018-10-05T04:57:20.516Z,8.47
2018-10-05T04:58:20.389Z,8.54
2018-10-05T04:59:20.266Z,8.40
2018-10-05T05:00:20.135Z,8.45
2018-10-05T05:01:20.010Z,8.47
2018-10-05T05:02:19.879Z,8.53
2018-10-05T05:03:19.790Z,8.51
2018-10-05T05:04:19.628Z,8.50
2018-10-05T05:05:19.499Z,8.65
2018-10-05T05:06:19.375Z,8.66
2018-10-05T05:07:19.244Z,8.69
2018-10-05T05:08:19.118Z,8.69
2018-10-05T05:09:18.990Z,8.62
2018-10-05T05:10:18.862Z,8.58
2018-10-05T05:11:18.737Z,8.68
2018-10-05T05:12:18.707Z,8.57
2018-10-05T05:13:18.483Z,8.62
2018-10-05T05:14:18.355Z,8.54
2018-10-05T05:15:18.226Z,8.51
2018-10-05T05:16:18.099Z,8.65
2018-10-05T05:17:17.971Z,8.68
2018-10-05T05:18:17.844Z,8.68
2018-10-05T05:19:17.715Z,8.69
2018-10-05T05:20:17.590Z,8.72
2018-10-05T05:21:17.461Z,8.71
2018-10-05T05:22:17.333Z,8.57
2018-10-05T05:23:17.206Z,8.65
2018-10-05T05:24:17.082Z,8.63
2018-10-05T05:25:16.955Z,8.51
2018-10-05T05:26:16.825Z,8.45
2018-10-05T05:27:16.705Z,8.48
2018-10-05T05:28:16.572Z,8.48
2018-10-05T05:29:16.443Z,8.42
2018-10-05T05:30:16.315Z,8.47
2018-10-05T05:31:16.192Z,8.40
2018-10-05T05:32:16.062Z,8.40
2018-10-05T05:33:15.935Z,8.37
2018-10-05T05:34:15.807Z,8.40
2018-10-05T05:35:15.681Z,8.36
2018-10-05T05:36:15.554Z,8.40
2018-10-05T05:37:15.426Z,8.29
2018-10-05T05:38:15.298Z,8.29
2018-10-05T05:39:15.172Z,8.36
2018-10-05T05:40:15.063Z,8.29
2018-10-05T05:41:14.919Z,8.25
2018-10-05T05:42:14.793Z,8.26
2018-10-05T05:43:14.663Z,8.39
2018-10-05T05:44:14.535Z,8.47
2018-10-05T05:45:14.408Z,8.47
2018-10-05T05:46:14.284Z,8.42
2018-10-05T05:47:14.152Z,8.44
2018-10-05T05:48:14.027Z,8.53
2018-10-05T05:49:13.896Z,8.53
2018-10-05T05:50:13.770Z,8.48
2018-10-05T05:51:13.643Z,8.54
2018-10-05T05:52:13.517Z,8.51
2018-10-05T05:53:13.390Z,8.55
2018-10-05T05:54:13.283Z,8.60
2018-10-05T05:55:13.135Z,8.63
2018-10-05T05:56:13.008Z,8.63
2018-10-05T05:57:12.878Z,8.55
2018-10-05T05:58:12.752Z,8.57
2018-10-05T05:59:12.624Z,8.50
2018-10-05T06:00:12.506Z,8.50
2018-10-05T06:01:12.426Z,8.48
2018-10-05T06:02:12.244Z,8.48
2018-10-05T06:03:12.120Z,8.51
2018-10-05T06:04:11.989Z,8.53
2018-10-05T06:05:11.863Z,8.62
2018-10-05T06:06:11.734Z,8.63
2018-10-05T06:07:11.606Z,8.71
2018-10-05T06:08:11.518Z,8.69
2018-10-05T06:09:11.353Z,8.66
2018-10-05T06:10:11.226Z,8.72
2018-10-05T06:11:11.101Z,8.68
2018-10-05T06:12:10.972Z,8.68
2018-10-05T06:13:10.844Z,8.69
2018-10-05T06:14:10.714Z,8.69
2018-10-05T06:15:10.595Z,8.62
2018-10-05T06:16:10.559Z,8.65
2018-10-05T06:17:10.334Z,8.50
2018-10-05T06:18:10.207Z,8.50
2018-10-05T06:19:10.080Z,8.51
2018-10-05T06:20:09.953Z,8.55
2018-10-05T06:21:09.826Z,8.54
2018-10-05T06:22:09.854Z,8.51
2018-10-05T06:23:09.571Z,8.45
2018-10-05T06:24:09.448Z,8.48
2018-10-05T06:25:09.316Z,8.50
2018-10-05T06:26:09.192Z,8.51
2018-10-05T06:27:09.117Z,8.60
2018-10-05T06:28:08.940Z,8.63
2018-10-05T06:29:08.809Z,8.62
2018-10-05T06:30:08.680Z,8.69
2018-10-05T06:31:08.564Z,8.73
2018-10-05T06:32:08.426Z,8.76
2018-10-05T06:33:08.319Z,8.76
2018-10-05T06:34:08.172Z,8.69
2018-10-05T06:35:08.045Z,8.65
2018-10-05T06:36:07.924Z,8.65
2018-10-05T06:37:07.792Z,8.66
2018-10-05T06:38:07.679Z,8.71
2018-10-05T06:39:07.599Z,8.63
2018-10-05T06:40:07.407Z,8.76
2018-10-05T06:41:07.280Z,8.99
2018-10-05T06:42:07.191Z,9.05
2018-10-05T06:43:07.028Z,9.28
2018-10-05T06:44:06.899Z,9.35
2018-10-05T06:45:06.773Z,9.45
2018-10-05T06:46:06.644Z,9.48
2018-10-05T06:47:06.518Z,9.56
2018-10-05T06:48:06.390Z,9.63
2018-10-05T06:49:06.266Z,9.71
2018-10-05T06:50:06.137Z,9.79
2018-10-05T06:51:06.009Z,10.03
2018-10-05T06:52:05.886Z,10.19
2018-10-05T06:53:05.769Z,10.36
2018-10-05T06:54:05.630Z,10.52
2018-10-05T06:55:05.506Z,10.59
2018-10-05T06:56:05.378Z,10.83
2018-10-05T06:57:05.252Z,11.02
2018-10-05T06:58:05.128Z,11.17
2018-10-05T06:59:05.003Z,11.24
2018-10-05T07:00:04.876Z,11.50
2018-10-05T07:01:04.749Z,11.74
2018-10-05T07:02:04.622Z,11.74
2018-10-05T07:03:04.498Z,11.85
2018-10-05T07:04:04.373Z,11.86
2018-10-05T07:05:04.246Z,11.89
2018-10-05T07:06:04.122Z,12.08
2018-10-05T07:07:03.994Z,12.02
2018-10-05T07:08:03.944Z,11.90
2018-10-05T07:09:03.747Z,11.80
2018-10-05T07:10:03.619Z,11.80
2018-10-05T07:11:03.500Z,11.82
2018-10-05T07:12:03.372Z,12.11
2018-10-05T07:13:03.245Z,12.30
2018-10-05T07:14:03.122Z,12.41
2018-10-05T07:15:02.996Z,12.62
2018-10-05T07:16:02.873Z,12.81
2018-10-05T07:17:02.804Z,12.95
2018-10-05T07:18:02.624Z,13.00
2018-10-05T07:19:02.503Z,12.88
2018-10-05T07:20:02.386Z,12.88
2018-10-05T07:21:02.253Z,13.04
2018-10-05T07:22:02.148Z,13.12
2018-10-05T07:23:02.008Z,13.29
2018-10-05T07:24:01.879Z,13.54
2018-10-05T07:25:01.756Z,13.74
2018-10-05T07:26:01.631Z,13.98
2018-10-05T07:27:01.510Z,14.07
2018-10-05T07:28:01.387Z,14.20
2018-10-05T07:29:01.261Z,14.20
2018-10-05T07:30:01.137Z,14.19
2018-10-05T07:31:01.013Z,14.31
2018-10-05T07:32:00.896Z,14.35
2018-10-05T07:33:00.768Z,14.50
2018-10-05T07:34:00.644Z,14.53
2018-10-05T07:35:00.528Z,14.19
2018-10-05T07:36:00.403Z,14.31
2018-10-05T07:37:00.330Z,14.46
2018-10-05T07:38:00.156Z,14.29
2018-10-05T07:39:00.031Z,14.31
2018-10-05T07:39:59.910Z,14.52
2018-10-05T07:40:59.784Z,14.61
2018-10-05T07:41:59.663Z,14.60
2018-10-05T07:42:59.561Z,14.46
2018-10-05T07:43:59.420Z,14.50
2018-10-05T07:44:59.301Z,14.67
2018-10-05T07:45:59.178Z,14.64
2018-10-05T07:46:59.052Z,14.71
2018-10-05T07:47:58.929Z,14.67
2018-10-05T07:48:58.807Z,14.75
2018-10-05T07:49:58.685Z,14.93
2018-10-05T07:50:58.561Z,15.06
2018-10-05T07:51:58.528Z,15.08
2018-10-05T07:52:58.316Z,15.08
2018-10-05T07:53:58.195Z,15.03
2018-10-05T07:54:58.072Z,15.06
2018-10-05T07:55:57.950Z,15.15
2018-10-05T07:56:57.828Z,15.28
2018-10-05T07:57:57.770Z,15.31
2018-10-05T07:58:57.583Z,15.41
2018-10-05T07:59:57.465Z,15.15
2018-10-05T08:00:57.341Z,15.03
2018-10-05T08:01:57.220Z,15.05
2018-10-05T08:02:57.099Z,14.90
2018-10-05T08:03:56.972Z,14.90
2018-10-05T08:04:56.852Z,15.08
2018-10-05T08:05:56.731Z,15.09
2018-10-05T08:06:56.607Z,15.26
2018-10-05T08:07:56.487Z,15.27
2018-10-05T08:08:56.362Z,15.33
2018-10-05T08:09:56.240Z,15.35
2018-10-05T08:10:56.120Z,15.48
2018-10-05T08:11:55.997Z,15.48
2018-10-05T08:12:55.882Z,15.36
2018-10-05T08:13:55.753Z,15.28
2018-10-05T08:14:55.632Z,15.28
2018-10-05T08:15:55.510Z,15.30
2018-10-05T08:16:55.387Z,15.66
2018-10-05T08:17:55.266Z,15.96
2018-10-05T08:18:55.145Z,16.12
2018-10-05T08:19:55.026Z,16.30
2018-10-05T08:20:54.916Z,16.38
2018-10-05T08:21:54.779Z,16.55
2018-10-05T08:22:54.659Z,16.55
2018-10-05T08:23:54.537Z,16.52
2018-10-05T08:24:54.416Z,16.52
2018-10-05T08:25:54.295Z,16.52
2018-10-05T08:26:54.192Z,16.48
2018-10-05T08:27:54.070Z,16.09
2018-10-05T08:28:53.930Z,15.85
2018-10-05T08:29:53.809Z,15.85
2018-10-05T08:30:53.692Z,16.12
2018-10-05T08:31:53.571Z,16.48
2018-10-05T08:32:53.445Z,16.83
2018-10-05T08:33:53.348Z,16.95
2018-10-05T08:34:53.206Z,17.20
2018-10-05T08:35:53.088Z,17.38
2018-10-05T08:36:52.964Z,17.13
2018-10-05T08:37:52.842Z,16.93
2018-10-05T08:38:52.722Z,16.90
2018-10-05T08:39:52.704Z,16.81
2018-10-05T08:40:52.478Z,16.77
2018-10-05T08:41:52.358Z,16.77
2018-10-05T08:42:52.239Z,16.73
2018-10-05T08:43:52.118Z,16.86
2018-10-05T08:44:52.010Z,16.89
2018-10-05T08:45:51.922Z,17.08
2018-10-05T08:46:51.759Z,17.30
2018-10-05T08:47:51.638Z,17.40
2018-10-05T08:48:51.514Z,17.23
2018-10-05T08:49:51.394Z,17.30
2018-10-05T08:50:51.279Z,17.29
2018-10-05T08:51:51.230Z,17.41
2018-10-05T08:52:51.035Z,17.43
2018-10-05T08:53:50.915Z,17.35
2018-10-05T08:54:50.797Z,17.44
2018-10-05T08:55:50.678Z,17.18
2018-10-05T08:56:50.552Z,17.28
2018-10-05T08:57:50.433Z,17.32
2018-10-05T08:58:50.314Z,17.66
2018-10-05T08:59:50.202Z,17.63
2018-10-05T09:00:50.072Z,17.67
2018-10-05T09:01:49.955Z,17.66
2018-10-05T09:02:49.835Z,18.07
2018-10-05T09:03:49.716Z,17.84
2018-10-05T09:04:49.599Z,18.03
2018-10-05T09:05:49.500Z,18.07
2018-10-05T09:06:49.358Z,18.34
2018-10-05T09:07:49.235Z,18.43
2018-10-05T09:08:49.113Z,18.65
2018-10-05T09:09:48.994Z,18.59
2018-10-05T09:10:48.874Z,18.47
2018-10-05T09:11:48.762Z,18.13
2018-10-05T09:12:48.636Z,18.13
2018-10-05T09:13:48.516Z,18.03
2018-10-05T09:14:48.398Z,18.36
2018-10-05T09:15:48.278Z,18.47
2018-10-05T09:16:48.157Z,18.95
2018-10-05T09:17:48.102Z,18.76
2018-10-05T09:18:47.921Z,18.70
2018-10-05T09:19:47.801Z,18.68
2018-10-05T09:20:47.680Z,18.83
2018-10-05T09:21:47.560Z,18.92
2018-10-05T09:22:47.443Z,18.84
2018-10-05T09:23:47.325Z,18.83
2018-10-05T09:24:47.202Z,18.80
2018-10-05T09:25:47.098Z,19.14
2018-10-05T09:26:46.966Z,19.47
2018-10-05T09:27:46.847Z,19.80
2018-10-05T09:28:46.725Z,19.90
2018-10-05T09:29:46.607Z,19.46
2018-10-05T09:30:46.669Z,19.33
2018-10-05T09:31:46.374Z,19.50
2018-10-05T09:32:46.252Z,19.80
2018-10-05T09:33:46.134Z,20.12
2018-10-05T09:34:46.016Z,20.25
2018-10-05T09:35:45.895Z,20.34
2018-10-05T09:36:45.775Z,20.42
2018-10-05T09:37:45.665Z,20.24
2018-10-05T09:38:45.542Z,20.28
2018-10-05T09:39:45.421Z,19.83
2018-10-05T09:40:45.302Z,19.94
2018-10-05T09:41:45.184Z,19.86
2018-10-05T09:42:45.066Z,20.06
2018-10-05T09:43:44.948Z,19.83
2018-10-05T09:44:44.843Z,19.80
2018-10-05T09:45:44.714Z,19.75
2018-10-05T09:46:44.594Z,19.98
2018-10-05T09:47:44.476Z,20.39
2018-10-05T09:48:44.356Z,20.25
2018-10-05T09:49:44.239Z,20.34
2018-10-05T09:50:44.123Z,20.39
2018-10-05T09:51:44.039Z,19.90
2018-10-05T09:52:43.908Z,19.57
2018-10-05T09:53:43.767Z,19.51
2018-10-05T09:54:43.650Z,19.60
2018-10-05T09:55:43.530Z,19.84
2018-10-05T09:56:43.414Z,19.97
2018-10-05T09:57:43.292Z,20.16
2018-10-05T09:58:43.181Z,20.24
2018-10-05T09:59:43.144Z,20.33
2018-10-05T10:00:42.937Z,20.12
2018-10-05T10:01:42.820Z,20.18
2018-10-05T10:02:42.701Z,20.35
2018-10-05T10:03:42.584Z,20.31
2018-10-05T10:04:42.466Z,20.41
2018-10-05T10:05:42.350Z,20.41
2018-10-05T10:06:42.237Z,20.39
2018-10-05T10:07:42.111Z,20.35
2018-10-05T10:08:41.992Z,20.59
2018-10-05T10:09:41.874Z,20.89
2018-10-05T10:10:41.758Z,20.95
2018-10-05T10:11:41.643Z,21.16
2018-10-05T10:12:41.522Z,21.26
2018-10-05T10:13:41.413Z,21.44
2018-10-05T10:14:41.296Z,21.44
2018-10-05T10:15:41.168Z,21.26
2018-10-05T10:16:41.050Z,21.21
2018-10-05T10:17:40.938Z,21.34
2018-10-05T10:18:40.819Z,20.99
2018-10-05T10:19:40.698Z,20.50
2018-10-05T10:20:40.584Z,20.72
2018-10-05T10:21:40.531Z,21.04
2018-10-05T10:22:40.373Z,21.02
2018-10-05T10:23:40.229Z,21.19
2018-10-05T10:24:40.112Z,21.09
2018-10-05T10:25:39.993Z,21.16
2018-10-05T10:26:39.876Z,21.08
2018-10-05T10:27:39.820Z,20.98
2018-10-05T10:28:39.697Z,20.84
2018-10-05T10:29:39.524Z,21.24
2018-10-05T10:30:39.408Z,21.38
2018-10-05T10:31:39.295Z,21.60
2018-10-05T10:32:39.175Z,21.24
2018-10-05T10:33:39.087Z,21.02
2018-10-05T10:34:38.950Z,20.90
2018-10-05T10:35:38.823Z,21.23
2018-10-05T10:36:38.765Z,21.39
2018-10-05T10:37:38.587Z,21.41
2018-10-05T10:38:38.471Z,21.34
2018-10-05T10:39:38.354Z,21.20
2018-10-05T10:40:38.235Z,21.04
2018-10-05T10:41:38.130Z,20.95
2018-10-05T10:42:38.073Z,21.41
2018-10-05T10:43:37.884Z,21.35
2018-10-05T10:44:37.765Z,21.38
2018-10-05T10:45:37.651Z,21.54
2018-10-05T10:46:37.533Z,21.59
2018-10-05T10:47:37.417Z,21.72
2018-10-05T10:48:37.303Z,21.99
2018-10-05T10:49:37.179Z,22.07
2018-10-05T10:50:37.063Z,21.94
2018-10-05T10:51:36.949Z,21.60
2018-10-05T10:52:36.826Z,21.53
2018-10-05T10:53:36.712Z,21.50
2018-10-05T10:54:36.592Z,21.45
2018-10-05T10:55:36.478Z,21.48
2018-10-05T10:56:36.358Z,21.51
2018-10-05T10:57:36.241Z,21.71
2018-10-05T10:58:36.123Z,21.61
2018-10-05T10:59:36.006Z,21.59
2018-10-05T11:00:35.911Z,21.46
2018-10-05T11:01:35.772Z,21.60
2018-10-05T11:02:35.653Z,21.76
2018-10-05T11:03:35.537Z,21.51
2018-10-05T11:04:35.474Z,21.42
2018-10-05T11:05:35.299Z,21.38
2018-10-05T11:06:35.183Z,21.16
2018-10-05T11:07:35.078Z,21.16
2018-10-05T11:08:34.945Z,20.99
2018-10-05T11:09:34.827Z,20.98
2018-10-05T11:10:34.709Z,21.24
2018-10-05T11:11:34.592Z,21.13
2018-10-05T11:12:34.474Z,20.99
2018-10-05T11:13:34.356Z,20.98
2018-10-05T11:14:34.237Z,21.04
2018-10-05T11:15:34.124Z,21.26
2018-10-05T11:16:34.001Z,20.83
2018-10-05T11:17:33.885Z,20.86
2018-10-05T11:18:33.765Z,20.89
2018-10-05T11:19:33.654Z,21.14
2018-10-05T11:20:33.527Z,20.58
2018-10-05T11:21:33.411Z,20.56
2018-10-05T11:22:33.293Z,20.59
2018-10-05T11:23:33.174Z,20.72
2018-10-05T11:24:33.055Z,20.74
2018-10-05T11:25:32.938Z,20.90
2018-10-05T11:26:32.819Z,21.04
2018-10-05T11:27:32.699Z,21.11
2018-10-05T11:28:32.579Z,21.11
2018-10-05T11:29:32.471Z,21.14
2018-10-05T11:30:32.348Z,21.14
2018-10-05T11:31:32.229Z,21.11
2018-10-05T11:32:32.110Z,21.09
2018-10-05T11:33:31.992Z,21.09
2018-10-05T11:34:31.871Z,21.05
2018-10-05T11:35:31.753Z,20.98
2018-10-05T11:36:31.632Z,21.02
2018-10-05T11:37:31.516Z,21.26
2018-10-05T11:38:31.397Z,21.13
2018-10-05T11:39:31.284Z,21.06
2018-10-05T11:40:31.158Z,20.86
2018-10-05T11:41:31.041Z,20.77
2018-10-05T11:42:30.923Z,20.59
2018-10-05T11:43:30.805Z,20.54
2018-10-05T11:44:30.684Z,20.31
2018-10-05T11:45:30.565Z,20.38
2018-10-05T11:46:30.529Z,19.88
2018-10-05T11:47:30.331Z,19.70
2018-10-05T11:48:30.211Z,19.93
2018-10-05T11:49:30.094Z,20.16
2018-10-05T11:50:29.977Z,20.25
2018-10-05T11:51:29.854Z,20.51
2018-10-05T11:52:29.806Z,20.64
2018-10-05T11:53:29.616Z,20.64
2018-10-05T11:54:29.501Z,20.72
2018-10-05T11:55:29.380Z,20.76
2018-10-05T11:56:29.263Z,20.93
2018-10-05T11:57:29.144Z,21.11
2018-10-05T11:58:29.022Z,21.27
2018-10-05T11:59:28.906Z,21.26
2018-10-05T12:00:28.786Z,21.24
2018-10-05T12:01:28.667Z,21.26
2018-10-05T12:02:28.570Z,21.19
2018-10-05T12:03:28.430Z,21.32
2018-10-05T12:04:28.312Z,21.38
2018-10-05T12:05:28.193Z,21.42
2018-10-05T12:06:28.074Z,21.46
2018-10-05T12:07:27.956Z,21.51
2018-10-05T12:08:27.839Z,21.56
2018-10-05T12:09:27.719Z,21.71
2018-10-05T12:10:27.603Z,21.66
2018-10-05T12:11:27.481Z,21.64
2018-10-05T12:12:27.363Z,21.61
2018-10-05T12:13:27.244Z,21.79
2018-10-05T12:14:27.129Z,21.76
2018-10-05T12:15:27.009Z,21.95
2018-10-05T12:16:26.889Z,21.91
2018-10-05T12:17:26.894Z,21.95
2018-10-05T12:18:26.655Z,21.79
2018-10-05T12:19:26.535Z,21.78
2018-10-05T12:20:26.414Z,21.60
2018-10-05T12:21:26.307Z,21.53
2018-10-05T12:22:26.178Z,21.56
2018-10-05T12:23:26.064Z,21.71
2018-10-05T12:24:25.950Z,21.64
2018-10-05T12:25:25.833Z,21.60
2018-10-05T12:26:25.751Z,21.66
2018-10-05T12:27:25.589Z,21.56
2018-10-05T12:28:25.473Z,21.67
2018-10-05T12:29:25.354Z,21.56
2018-10-05T12:30:25.234Z,21.35
2018-10-05T12:31:25.124Z,21.04
2018-10-05T12:32:24.997Z,20.76
2018-10-05T12:33:24.946Z,20.61
2018-10-05T12:34:24.760Z,20.59
2018-10-05T12:35:24.643Z,20.64
2018-10-05T12:36:24.524Z,20.54
2018-10-05T12:37:24.407Z,20.41
2018-10-05T12:38:24.286Z,20.39
2018-10-05T12:39:24.169Z,20.47
2018-10-05T12:40:24.051Z,20.39
2018-10-05T12:41:23.928Z,20.41
2018-10-05T12:42:23.820Z,20.13
2018-10-05T12:43:23.693Z,20.24
2018-10-05T12:44:23.579Z,20.18
2018-10-05T12:45:23.454Z,20.24
2018-10-05T12:46:23.339Z,20.34
2018-10-05T12:47:23.217Z,20.43
2018-10-05T12:48:23.098Z,20.58
2018-10-05T12:49:22.979Z,20.74
2018-10-05T12:50:22.861Z,20.74
2018-10-05T12:51:22.741Z,20.80
2018-10-05T12:52:22.623Z,20.76
2018-10-05T12:53:22.524Z,20.83
2018-10-05T12:54:22.384Z,20.74
2018-10-05T12:55:22.267Z,20.91
2018-10-05T12:56:22.149Z,20.95
2018-10-05T12:57:22.030Z,20.86
2018-10-05T12:58:21.910Z,20.87
2018-10-05T12:59:21.794Z,21.02
2018-10-05T13:00:21.672Z,20.98
2018-10-05T13:01:21.556Z,20.98
2018-10-05T13:02:21.436Z,21.13
2018-10-05T13:03:21.317Z,21.16
2018-10-05T13:04:21.200Z,21.17